Time;durP1;ratioP1;P1;durP2;ratioP2;P2;SDS_P1;SDS_P2;PMS_P1;PMS_P2;Temp;Humidity;BMP_temperature;BMP_pressure;BME280_temperature;BME280_humidity;BME280_pressure;Samples;Min_cycle;Max_cycle;Signal;HPM_P1;HPM_P2
2023/01/13 00:01:37;;;;;;;10.67;2.03;;;12.30;99.90;;;;;;5049486;28;20737;-30
2023/01/13 00:04:09;;;;;;;9.90;1.90;;;12.20;99.90;;;;;;5047399;28;20690;-30
2023/01/13 00:06:39;;;;;;;6.77;2.07;;;12.20;99.90;;;;;;5049052;28;20200;-30
2023/01/13 00:09:06;;;;;;;9.60;2.03;;;12.20;99.90;;;;;;5048828;28;20215;-31
2023/01/13 00:11:33;;;;;;;9.00;2.10;;;12.10;99.90;;;;;;5048786;28;20228;-29
2023/01/13 00:14:01;;;;;;;11.27;1.93;;;12.10;99.90;;;;;;5048780;28;20309;-30
2023/01/13 00:16:28;;;;;;;9.73;2.10;;;12.10;99.90;;;;;;5049346;28;20272;-30
2023/01/13 00:18:55;;;;;;;12.23;2.10;;;12.10;99.90;;;;;;5048706;28;20228;-30
2023/01/13 00:21:25;;;;;;;7.23;2.53;;;12.10;99.90;;;;;;5048781;28;20215;-30
2023/01/13 00:23:53;;;;;;;8.73;1.80;;;12.10;99.90;;;;;;5048487;28;20299;-30
2023/01/13 00:26:23;;;;;;;6.17;1.73;;;12.10;99.90;;;;;;5048990;28;20215;-30
2023/01/13 00:28:57;;;;;;;11.00;2.27;;;12.10;99.90;;;;;;5046910;28;20220;-30
2023/01/13 00:31:32;;;;;;;11.13;2.17;;;12.20;99.90;;;;;;5048392;28;20228;-29
2023/01/13 00:34:00;;;;;;;11.40;2.20;;;12.10;99.90;;;;;;5048527;28;20200;-30
2023/01/13 00:36:30;;;;;;;17.30;3.03;;;12.10;99.90;;;;;;5048595;28;20228;-30
2023/01/13 00:38:59;;;;;;;9.80;2.47;;;12.00;99.90;;;;;;5046970;28;20530;-30
2023/01/13 00:41:27;;;;;;;8.93;1.93;;;12.00;99.90;;;;;;5048294;28;20599;-30
2023/01/13 00:43:57;;;;;;;10.07;2.27;;;11.90;99.90;;;;;;5048510;28;20200;-30
2023/01/13 00:46:24;;;;;;;11.30;2.97;;;11.90;99.90;;;;;;5047941;28;20266;-30
2023/01/13 00:48:52;;;;;;;17.10;2.83;;;11.80;99.90;;;;;;5047220;28;20227;-30
2023/01/13 00:51:22;;;;;;;15.47;3.17;;;11.80;99.90;;;;;;5046596;28;20706;-30
2023/01/13 00:53:51;;;;;;;19.10;3.43;;;11.80;99.90;;;;;;5048606;28;20203;-30
2023/01/13 00:56:24;;;;;;;16.77;3.40;;;11.80;99.90;;;;;;5048692;28;20228;-29
2023/01/13 00:59:09;;;;;;;18.27;3.33;;;11.70;99.90;;;;;;5048901;28;20446;-30
2023/01/13 01:01:37;;;;;;;17.13;3.00;;;11.70;99.90;;;;;;5048383;28;20204;-30
2023/01/13 01:04:04;;;;;;;19.80;3.70;;;11.60;99.90;;;;;;5048218;28;20295;-30
2023/01/13 01:06:36;;;;;;;14.43;3.13;;;11.60;99.90;;;;;;5047855;28;20216;-30
2023/01/13 01:09:04;;;;;;;12.67;3.00;;;11.60;99.90;;;;;;5048668;28;20208;-30
2023/01/13 01:11:34;;;;;;;12.33;2.73;;;11.60;99.90;;;;;;5048058;28;20231;-29
2023/01/13 01:14:02;;;;;;;16.67;3.00;;;11.50;99.90;;;;;;5047814;28;20212;-30
2023/01/13 01:16:31;;;;;;;15.47;3.20;;;11.50;99.90;;;;;;5048368;28;20686;-30
2023/01/13 01:18:59;;;;;;;9.20;2.50;;;11.50;99.90;;;;;;5048057;28;20236;-29
2023/01/13 01:21:27;;;;;;;18.13;3.07;;;11.50;99.90;;;;;;5048060;28;20204;-30
2023/01/13 01:23:57;;;;;;;13.93;2.60;;;11.50;99.90;;;;;;5046478;28;20331;-30
2023/01/13 01:26:27;;;;;;;10.43;2.47;;;11.40;99.90;;;;;;5048005;28;20200;-30
2023/01/13 01:28:55;;;;;;;17.93;3.30;;;11.50;99.90;;;;;;5048106;28;20841;-30
2023/01/13 01:31:30;;;;;;;14.97;2.63;;;11.40;99.90;;;;;;5046194;28;20252;-30
2023/01/13 01:34:00;;;;;;;16.80;3.07;;;11.40;99.90;;;;;;5047697;28;20200;-30
2023/01/13 01:36:30;;;;;;;13.27;2.77;;;11.40;99.90;;;;;;5046212;28;20619;-30
2023/01/13 01:39:00;;;;;;;11.67;2.53;;;11.40;99.90;;;;;;5048141;28;20249;-30
2023/01/13 01:41:32;;;;;;;11.13;2.90;;;11.30;99.90;;;;;;5047540;28;20258;-30
2023/01/13 01:44:01;;;;;;;13.33;2.40;;;11.30;99.90;;;;;;5047635;28;20290;-30
2023/01/13 01:46:32;;;;;;;8.33;2.30;;;11.30;99.90;;;;;;5047822;28;20206;-30
2023/01/13 01:49:23;;;;;;;8.40;2.20;;;11.20;99.90;;;;;;5047477;28;20304;-30
2023/01/13 01:52:00;;;;;;;11.20;2.67;;;11.20;99.90;;;;;;5046304;28;20244;-30
2023/01/13 01:54:40;;;;;;;9.37;1.97;;;11.20;99.90;;;;;;5047319;28;20215;-30
2023/01/13 01:57:18;;;;;;;11.47;2.00;;;11.20;99.90;;;;;;5047214;28;20216;-30
2023/01/13 01:59:45;;;;;;;6.03;1.60;;;11.10;99.90;;;;;;5061828;28;20207;-30
2023/01/13 02:02:12;;;;;;;9.03;1.70;;;11.10;99.90;;;;;;5059386;28;20290;-30
2023/01/13 02:04:49;;;;;;;8.13;1.60;;;11.10;99.90;;;;;;5046868;28;20216;-30
2023/01/13 02:07:26;;;;;;;9.13;2.13;;;11.10;99.90;;;;;;5046533;28;20206;-30
2023/01/13 02:10:00;;;;;;;15.43;1.77;;;11.10;99.90;;;;;;5046633;28;20750;-30
2023/01/13 02:12:31;;;;;;;9.37;1.67;;;11.00;99.90;;;;;;5046585;28;20730;-30
2023/01/13 02:15:06;;;;;;;9.90;2.20;;;11.00;99.90;;;;;;5046269;28;20215;-30
2023/01/13 02:17:51;;;;;;;9.40;1.83;;;11.00;99.90;;;;;;5045711;28;20203;-30
2023/01/13 02:20:20;;;;;;;11.10;2.30;;;10.90;99.90;;;;;;5046464;28;20208;-30
2023/01/13 02:26:16;;;;;;;13.93;2.37;;;10.90;99.90;;;;;;5046264;28;20714;-30
2023/01/13 02:31:59;;;;;;;9.23;2.33;;;10.80;99.90;;;;;;5045929;28;20311;-30
2023/01/13 02:34:40;;;;;;;15.37;2.53;;;10.80;99.90;;;;;;5046177;28;20195;-30
2023/01/13 02:37:35;;;;;;;9.63;1.77;;;10.80;99.90;;;;;;5046147;28;20227;-30
2023/01/13 02:40:07;;;;;;;13.00;2.23;;;10.80;99.90;;;;;;5046168;28;20323;-30
2023/01/13 02:46:10;;;;;;;10.27;2.03;;;10.70;99.90;;;;;;5046570;28;20196;-30
2023/01/13 02:48:40;;;;;;;11.40;2.23;;;10.70;99.90;;;;;;5045665;28;20558;-30
2023/01/13 02:51:14;;;;;;;11.03;1.60;;;10.60;99.90;;;;;;5045853;28;20255;-30
2023/01/13 02:53:46;;;;;;;8.43;1.57;;;10.70;99.90;;;;;;5045816;28;20200;-30
2023/01/13 02:56:15;;;;;;;9.40;1.83;;;10.70;99.90;;;;;;5045764;28;20725;-30
2023/01/13 02:58:47;;;;;;;12.43;2.30;;;10.70;99.90;;;;;;5046149;28;20197;-30
2023/01/13 03:01:15;;;;;;;14.90;2.53;;;10.70;99.90;;;;;;5045721;28;20266;-30
2023/01/13 03:03:43;;;;;;;9.63;2.23;;;10.70;99.90;;;;;;5045691;28;20204;-30
2023/01/13 03:06:36;;;;;;;9.23;2.33;;;10.70;99.90;;;;;;5045702;28;20200;-30
2023/01/13 03:09:22;;;;;;;15.47;2.30;;;10.70;99.90;;;;;;5045921;28;20915;-30
2023/01/13 03:12:06;;;;;;;10.73;2.90;;;10.70;99.90;;;;;;5045642;28;20240;-30
2023/01/13 03:14:47;;;;;;;15.43;2.67;;;10.80;99.90;;;;;;5046070;28;20199;-30
2023/01/13 03:17:49;;;;;;;15.93;2.57;;;10.70;99.90;;;;;;5044436;28;20204;-29
2023/01/13 03:20:33;;;;;;;15.87;2.43;;;10.70;99.90;;;;;;5044127;28;20215;-30
2023/01/13 03:23:34;;;;;;;11.80;2.23;;;10.80;99.90;;;;;;5045593;28;20212;-30
2023/01/13 03:26:22;;;;;;;12.87;2.13;;;10.80;99.90;;;;;;5045388;28;20196;-30
2023/01/13 03:29:00;;;;;;;13.43;2.57;;;10.80;99.90;;;;;;5048134;28;20303;-30
2023/01/13 03:31:36;;;;;;;15.20;3.20;;;10.80;99.90;;;;;;5049466;28;20277;-30
2023/01/13 03:34:13;;;;;;;11.40;2.80;;;10.90;99.90;;;;;;5049572;28;20250;-30
2023/01/13 03:36:46;;;;;;;19.63;3.53;;;10.90;99.90;;;;;;5047962;28;20200;-30
2023/01/13 03:39:19;;;;;;;13.17;2.83;;;10.80;99.90;;;;;;5049818;28;20216;-30
2023/01/13 03:41:56;;;;;;;14.27;2.20;;;10.80;99.90;;;;;;5049303;28;20581;-30
2023/01/13 03:44:37;;;;;;;15.07;2.50;;;10.90;99.90;;;;;;5047798;28;20200;-30
2023/01/13 03:47:40;;;;;;;11.83;2.33;;;10.90;99.90;;;;;;5049571;28;20679;-30
2023/01/13 03:50:15;;;;;;;17.50;2.60;;;10.90;99.90;;;;;;5049626;28;20208;-30
2023/01/13 03:52:48;;;;;;;10.33;2.30;;;10.90;99.90;;;;;;5049265;28;20242;-30
2023/01/13 03:55:26;;;;;;;13.67;2.40;;;10.90;99.90;;;;;;5049320;28;20666;-30
2023/01/13 03:57:56;;;;;;;10.77;2.63;;;10.90;99.90;;;;;;5049002;28;20224;-30
2023/01/13 04:01:02;;;;;;;9.27;2.10;;;10.90;99.90;;;;;;5047532;28;20200;-30
2023/01/13 04:03:41;;;;;;;8.07;1.70;;;10.90;99.90;;;;;;5049181;28;20303;-30
2023/01/13 04:06:16;;;;;;;5.77;1.50;;;10.90;99.90;;;;;;5049397;28;20639;-30
2023/01/13 04:08:57;;;;;;;8.50;1.90;;;10.90;99.90;;;;;;5048781;28;20533;-30
2023/01/13 04:11:34;;;;;;;8.73;1.63;;;10.80;99.90;;;;;;5048714;28;20776;-30
2023/01/13 04:14:05;;;;;;;6.77;1.63;;;10.80;99.90;;;;;;5048754;28;20460;-30
2023/01/13 04:16:32;;;;;;;10.60;2.37;;;10.80;99.90;;;;;;5048623;28;20205;-30
2023/01/13 04:19:03;;;;;;;7.43;1.57;;;10.80;99.90;;;;;;5048721;28;20303;-30
2023/01/13 04:21:30;;;;;;;11.80;1.73;;;10.70;99.90;;;;;;5049219;28;20618;-30
2023/01/13 04:24:00;;;;;;;9.57;1.37;;;10.70;99.90;;;;;;5048849;28;20698;-30
2023/01/13 04:26:34;;;;;;;10.33;1.83;;;10.70;99.90;;;;;;5048487;28;20627;-30
2023/01/13 04:29:01;;;;;;;7.77;1.23;;;10.70;99.90;;;;;;5048412;28;20239;-30
2023/01/13 04:31:28;;;;;;;11.10;1.90;;;10.70;99.90;;;;;;5048311;28;20715;-30
2023/01/13 04:33:55;;;;;;;9.00;2.13;;;10.70;99.90;;;;;;5048422;28;20784;-30
2023/01/13 04:36:26;;;;;;;10.03;1.67;;;10.70;99.90;;;;;;5048464;28;20212;-30
2023/01/13 04:38:56;;;;;;;12.20;1.87;;;10.70;99.90;;;;;;5048346;28;20549;-30
2023/01/13 04:41:24;;;;;;;9.47;1.43;;;10.70;99.90;;;;;;5046450;28;20254;-30
2023/01/13 04:43:51;;;;;;;8.97;1.80;;;10.70;99.90;;;;;;5048285;28;20311;-30
2023/01/13 04:46:18;;;;;;;7.90;1.57;;;10.60;99.90;;;;;;5048333;28;20208;-30
2023/01/13 04:48:46;;;;;;;9.63;1.87;;;10.60;99.90;;;;;;5048079;28;20649;-30
2023/01/13 04:51:15;;;;;;;10.40;2.13;;;10.70;99.90;;;;;;5047994;28;20277;-30
2023/01/13 04:53:45;;;;;;;9.87;1.77;;;10.70;99.90;;;;;;5048137;28;20220;-30
2023/01/13 04:56:12;;;;;;;6.47;1.17;;;10.60;99.90;;;;;;5048088;28;20197;-30
2023/01/13 04:58:44;;;;;;;6.37;1.83;;;10.60;99.90;;;;;;5048340;28;20241;-30
2023/01/13 05:01:14;;;;;;;7.70;1.63;;;10.70;99.90;;;;;;5048813;28;20253;-30
2023/01/13 05:03:41;;;;;;;9.33;1.60;;;10.70;99.90;;;;;;5048355;28;20288;-30
2023/01/13 05:06:14;;;;;;;10.53;1.57;;;10.70;99.90;;;;;;5048145;28;20294;-30
2023/01/13 05:08:41;;;;;;;8.73;1.60;;;10.80;99.90;;;;;;5046866;28;20282;-30
2023/01/13 05:17:00;;;;;;;6.40;1.33;;;10.70;99.90;;;;;;5048020;28;20200;-30
2023/01/13 05:19:32;;;;;;;12.77;2.20;;;10.70;99.90;;;;;;5046695;28;20192;-30
2023/01/13 05:27:35;;;;;;;12.50;2.10;;;10.70;99.90;;;;;;5047984;28;20204;-30
2023/01/13 05:30:03;;;;;;;8.50;2.17;;;10.70;99.90;;;;;;5048034;28;20215;-30
2023/01/13 05:32:33;;;;;;;11.43;1.57;;;10.60;99.90;;;;;;5047778;28;20228;-30
2023/01/13 05:35:04;;;;;;;12.63;1.30;;;10.60;99.90;;;;;;5047952;28;20269;-30
2023/01/13 05:37:32;;;;;;;8.50;1.70;;;10.50;99.90;;;;;;5047747;28;20219;-30
2023/01/13 05:45:31;;;;;;;10.93;2.00;;;10.40;99.90;;;;;;5048105;28;20671;-30
2023/01/13 05:47:58;;;;;;;8.43;1.73;;;10.40;99.90;;;;;;5047709;28;20641;-30
2023/01/13 05:50:25;;;;;;;11.90;2.00;;;10.40;99.90;;;;;;5045819;28;20212;-30
2023/01/13 05:52:57;;;;;;;12.60;2.13;;;10.40;99.90;;;;;;5047317;28;20274;-30
2023/01/13 05:55:26;;;;;;;8.27;1.80;;;10.40;99.90;;;;;;5047195;28;20584;-30
2023/01/13 05:57:56;;;;;;;7.53;2.17;;;10.40;99.90;;;;;;5047215;28;20678;-30
2023/01/13 06:00:23;;;;;;;11.43;2.00;;;10.30;99.90;;;;;;5047068;28;20193;-30
2023/01/13 06:02:51;;;;;;;8.43;2.10;;;10.40;99.90;;;;;;5047375;28;20211;-30
2023/01/13 06:05:18;;;;;;;10.87;2.10;;;10.30;99.90;;;;;;5047234;28;20545;-30
2023/01/13 06:07:47;;;;;;;14.23;1.80;;;10.30;99.90;;;;;;5046952;28;20204;-30
2023/01/13 06:10:15;;;;;;;8.40;1.77;;;10.30;99.90;;;;;;5047085;28;20212;-30
2023/01/13 06:12:47;;;;;;;8.77;1.83;;;10.30;99.90;;;;;;5047104;28;20507;-30
2023/01/13 06:15:17;;;;;;;10.03;2.03;;;10.30;99.90;;;;;;5047302;28;20207;-30
2023/01/13 06:17:49;;;;;;;9.87;1.83;;;10.20;99.90;;;;;;5045211;28;20224;-30
2023/01/13 06:20:17;;;;;;;10.70;2.23;;;10.20;99.90;;;;;;5046797;28;20204;-30
2023/01/13 06:22:48;;;;;;;13.63;2.00;;;10.20;99.90;;;;;;5045290;28;20568;-30
2023/01/13 06:25:29;;;;;;;8.80;1.90;;;10.20;99.90;;;;;;5046849;28;20300;-30
2023/01/13 06:28:00;;;;;;;8.67;2.00;;;10.20;99.90;;;;;;5046602;28;20208;-30
2023/01/13 06:30:33;;;;;;;13.60;2.67;;;10.30;99.90;;;;;;5046289;28;20380;-30
2023/01/13 06:33:07;;;;;;;14.00;2.43;;;10.20;99.90;;;;;;5046277;28;20638;-30
2023/01/13 06:35:40;;;;;;;16.07;2.53;;;10.20;99.90;;;;;;5046114;28;20215;-30
2023/01/13 06:38:14;;;;;;;9.87;2.03;;;10.20;99.90;;;;;;5046163;28;20249;-30
2023/01/13 06:40:42;;;;;;;12.40;2.40;;;10.30;99.90;;;;;;5045938;28;20262;-30
2023/01/13 06:43:20;;;;;;;11.67;2.20;;;10.30;99.90;;;;;;5044824;28;20261;-30
2023/01/13 06:45:54;;;;;;;10.13;1.80;;;10.20;99.90;;;;;;5046028;28;20196;-30
2023/01/13 06:48:26;;;;;;;16.87;2.27;;;10.20;99.90;;;;;;5045641;28;20216;-30
2023/01/13 06:50:57;;;;;;;17.37;3.00;;;10.20;99.90;;;;;;5046160;28;20668;-30
2023/01/13 06:53:24;;;;;;;15.23;2.80;;;10.20;99.90;;;;;;5045854;28;20240;-37
2023/01/13 06:55:52;;;;;;;14.80;3.23;;;10.20;99.90;;;;;;5045804;28;20274;-30
2023/01/13 06:58:19;;;;;;;18.13;4.17;;;10.20;99.90;;;;;;5045732;28;20246;-30
2023/01/13 07:00:50;;;;;;;19.43;3.20;;;10.20;99.90;;;;;;5044403;28;20554;-30
2023/01/13 07:03:18;;;;;;;17.23;3.30;;;10.20;99.90;;;;;;5045881;28;20253;-30
2023/01/13 07:05:53;;;;;;;17.23;3.60;;;10.20;99.90;;;;;;5045762;28;20266;-30
2023/01/13 07:08:24;;;;;;;18.47;3.10;;;10.20;99.90;;;;;;5045814;28;20240;-30
2023/01/13 07:10:51;;;;;;;21.80;3.90;;;10.20;99.90;;;;;;5045458;28;20200;-30
2023/01/13 07:16:06;;;;;;;21.77;3.57;;;10.10;99.90;;;;;;5045674;28;20215;-30
2023/01/13 07:18:37;;;;;;;21.10;3.83;;;10.10;99.90;;;;;;5045738;28;20211;-30
2023/01/13 07:21:08;;;;;;;19.63;3.57;;;10.10;99.90;;;;;;5045524;28;20228;-30
2023/01/13 07:23:37;;;;;;;17.70;3.40;;;10.10;99.90;;;;;;5045468;28;20206;-30
2023/01/13 07:26:08;;;;;;;16.73;3.60;;;10.10;99.90;;;;;;5045355;28;20201;-30
2023/01/13 07:28:36;;;;;;;23.13;3.20;;;10.10;99.90;;;;;;5044038;28;20683;-30
2023/01/13 07:31:04;;;;;;;14.80;3.67;;;10.10;99.90;;;;;;5045305;28;20448;-30
2023/01/13 07:33:32;;;;;;;18.87;3.63;;;10.10;99.90;;;;;;5045213;28;20262;-30
2023/01/13 07:36:02;;;;;;;23.20;3.83;;;10.10;99.90;;;;;;5043833;28;20200;-30
2023/01/13 07:38:30;;;;;;;24.50;3.67;;;10.10;99.90;;;;;;5045272;28;20251;-30
2023/01/13 07:43:30;;;;;;;26.60;4.57;;;10.10;99.90;;;;;;5045502;28;20199;-30
2023/01/13 07:43:51;;;;;;;19.10;3.77;;;10.00;99.90;;;;;;5045515;28;20289;-30
2023/01/13 07:46:18;;;;;;;25.17;4.17;;;10.00;99.90;;;;;;5045337;28;20192;-30
2023/01/13 07:48:47;;;;;;;20.13;3.23;;;10.00;99.90;;;;;;5045168;28;20215;-30
2023/01/13 07:51:18;;;;;;;19.77;3.80;;;10.10;99.90;;;;;;5043804;28;20214;-30
2023/01/13 07:53:45;;;;;;;19.77;3.83;;;10.10;99.90;;;;;;5045316;28;20204;-30
2023/01/13 07:56:12;;;;;;;18.00;3.13;;;10.00;99.90;;;;;;5045307;28;20223;-30
2023/01/13 07:58:39;;;;;;;23.07;3.83;;;10.00;99.90;;;;;;5045515;28;20235;-30
2023/01/13 08:01:11;;;;;;;25.53;3.90;;;10.00;99.90;;;;;;5045936;28;20196;-30
2023/01/13 08:03:39;;;;;;;17.30;3.63;;;10.00;99.90;;;;;;5045854;28;20585;-30
2023/01/13 08:06:08;;;;;;;16.50;3.07;;;10.00;99.90;;;;;;5044123;28;20671;-30
2023/01/13 08:08:38;;;;;;;23.17;3.90;;;10.00;99.90;;;;;;5044254;28;20204;-30
2023/01/13 08:11:10;;;;;;;17.40;3.23;;;10.00;99.90;;;;;;5045541;28;20193;-30
2023/01/13 08:13:40;;;;;;;19.20;3.50;;;10.00;99.90;;;;;;5045393;28;20327;-30
2023/01/13 08:16:12;;;;;;;17.73;3.30;;;10.00;99.90;;;;;;5048388;28;20584;-30
2023/01/13 08:18:40;;;;;;;25.10;4.47;;;10.00;99.90;;;;;;5049437;28;20200;-30
2023/01/13 08:21:12;;;;;;;21.27;4.07;;;10.00;99.90;;;;;;5049095;28;20228;-30
2023/01/13 08:23:42;;;;;;;20.97;3.90;;;10.00;99.90;;;;;;5048997;28;20220;-30
2023/01/13 08:26:11;;;;;;;21.80;3.83;;;10.00;99.90;;;;;;5047373;28;20206;-30
2023/01/13 08:28:42;;;;;;;25.63;3.60;;;10.00;99.90;;;;;;5049135;28;20204;-30
2023/01/13 08:31:14;;;;;;;21.33;3.47;;;10.00;99.90;;;;;;5049140;28;20536;-30
2023/01/13 08:33:42;;;;;;;23.97;4.07;;;10.10;99.90;;;;;;5047389;28;20346;-30
2023/01/13 08:36:11;;;;;;;21.10;3.57;;;10.10;99.90;;;;;;5047306;28;20220;-30
2023/01/13 08:38:39;;;;;;;18.33;3.70;;;10.10;99.90;;;;;;5048740;28;20647;-30
2023/01/13 08:41:09;;;;;;;15.70;3.23;;;10.00;99.90;;;;;;5048700;28;20220;-30
2023/01/13 08:43:36;;;;;;;14.63;3.77;;;10.10;99.90;;;;;;5048761;28;20729;-30
2023/01/13 08:46:06;;;;;;;18.30;3.43;;;10.00;99.90;;;;;;5048619;28;20204;-30
2023/01/13 08:48:33;;;;;;;16.33;3.33;;;10.10;99.90;;;;;;5046653;28;21111;-31
2023/01/13 08:51:05;;;;;;;17.00;3.10;;;10.10;99.90;;;;;;5048747;28;20223;-30
2023/01/13 08:53:35;;;;;;;11.80;3.00;;;10.10;99.90;;;;;;5048756;28;20239;-30
2023/01/13 08:56:10;;;;;;;16.13;2.97;;;10.10;99.90;;;;;;5048672;28;20654;-30
2023/01/13 08:58:37;;;;;;;23.87;3.33;;;10.20;99.90;;;;;;5048620;28;20219;-30
2023/01/13 09:01:07;;;;;;;15.13;3.10;;;10.20;99.90;;;;;;5046811;28;20623;-30
2023/01/13 09:03:40;;;;;;;18.17;3.13;;;10.20;99.90;;;;;;5048187;28;20196;-30
2023/01/13 09:06:07;;;;;;;14.83;3.00;;;10.30;99.90;;;;;;5046887;28;20243;-30
2023/01/13 09:08:37;;;;;;;11.17;2.77;;;10.30;99.90;;;;;;5048038;28;20212;-30
2023/01/13 09:13:55;;;;;;;15.87;3.03;;;10.30;99.90;;;;;;5047746;28;20255;-31
2023/01/13 09:16:24;;;;;;;15.13;3.10;;;10.30;99.90;;;;;;5048035;28;20204;-31
2023/01/13 09:18:51;;;;;;;16.37;3.40;;;10.30;99.90;;;;;;5048048;28;20207;-31
2023/01/13 09:21:20;;;;;;;18.97;3.57;;;10.30;99.90;;;;;;5048117;28;20203;-31
2023/01/13 09:23:47;;;;;;;17.07;3.30;;;10.40;99.90;;;;;;5047700;28;20212;-31
2023/01/13 09:26:19;;;;;;;16.83;2.90;;;10.40;99.90;;;;;;5047261;28;20204;-31
2023/01/13 09:28:49;;;;;;;18.47;3.13;;;10.40;99.90;;;;;;5047557;28;20745;-31
2023/01/13 09:31:18;;;;;;;23.87;3.50;;;10.40;99.90;;;;;;5047826;28;20215;-31
2023/01/13 09:36:36;;;;;;;17.27;3.63;;;10.40;99.90;;;;;;5047642;28;20204;-31
2023/01/13 09:39:04;;;;;;;19.23;4.40;;;10.50;99.90;;;;;;5046038;28;20825;-31
2023/01/13 09:45:14;;;;;;;20.37;4.33;;;10.60;99.90;;;;;;5047547;28;20675;-31
2023/01/13 09:48:12;;;;;;;22.43;3.77;;;10.50;99.90;;;;;;5044385;28;20283;-31
2023/01/13 09:51:04;;;;;;;17.43;3.93;;;10.50;99.90;;;;;;5044586;28;20204;-31
2023/01/13 09:53:32;;;;;;;23.83;4.17;;;10.60;99.90;;;;;;5046693;28;20236;-31
2023/01/13 09:56:00;;;;;;;20.33;3.70;;;10.60;99.90;;;;;;5047337;28;20208;-31
2023/01/13 09:58:27;;;;;;;15.77;3.87;;;10.60;99.90;;;;;;5047311;28;20200;-31
2023/01/13 10:00:54;;;;;;;16.87;3.57;;;10.60;99.90;;;;;;5047351;28;20626;-31
2023/01/13 10:03:30;;;;;;;18.93;3.50;;;10.60;99.90;;;;;;5047136;28;20287;-33
2023/01/13 10:06:18;;;;;;;23.67;3.80;;;10.60;99.90;;;;;;5046914;28;20732;-33
2023/01/13 10:08:49;;;;;;;19.87;4.23;;;10.70;99.90;;;;;;5045683;28;20220;-33
2023/01/13 10:14:26;;;;;;;20.47;3.60;;;10.70;99.90;;;;;;5046784;28;20277;-33
2023/01/13 10:17:17;;;;;;;22.43;4.17;;;10.70;99.90;;;;;;5046814;28;20204;-33
2023/01/13 10:19:51;;;;;;;22.00;3.97;;;10.80;99.90;;;;;;5045402;28;20209;-33
2023/01/13 10:22:36;;;;;;;21.10;3.47;;;10.90;99.90;;;;;;5046833;28;20196;-33
2023/01/13 10:25:49;;;;;;;20.00;3.73;;;10.80;99.90;;;;;;5046577;28;20212;-32
2023/01/13 10:28:22;;;;;;;22.47;3.73;;;10.90;99.90;;;;;;5046979;28;20233;-32
2023/01/13 10:30:52;;;;;;;13.83;2.87;;;10.90;99.90;;;;;;5046784;28;20247;-32
2023/01/13 10:33:24;;;;;;;20.53;4.30;;;10.90;99.90;;;;;;5045087;28;20323;-33
2023/01/13 10:35:58;;;;;;;20.70;3.90;;;11.00;99.90;;;;;;5045589;28;20211;-33
2023/01/13 10:38:29;;;;;;;22.10;3.50;;;11.00;99.90;;;;;;5044307;28;20549;-33
2023/01/13 10:40:59;;;;;;;19.43;3.97;;;11.00;99.90;;;;;;5046423;28;20211;-31
2023/01/13 10:43:34;;;;;;;24.03;3.80;;;10.90;99.90;;;;;;5046438;28;20706;-35
2023/01/13 10:46:09;;;;;;;21.87;3.83;;;11.00;99.90;;;;;;5046361;28;20204;-34
2023/01/13 10:48:52;;;;;;;16.77;3.37;;;11.10;99.90;;;;;;5046612;28;20207;-34
2023/01/13 10:51:27;;;;;;;17.43;3.30;;;11.20;99.90;;;;;;5046359;28;20248;-34
2023/01/13 10:54:13;;;;;;;18.13;4.00;;;11.20;99.90;;;;;;5046223;28;20338;-34
2023/01/13 10:56:43;;;;;;;22.43;3.60;;;11.30;99.90;;;;;;5046042;28;20204;-34
2023/01/13 10:59:22;;;;;;;18.17;4.13;;;11.30;99.90;;;;;;5046323;28;20617;-34
2023/01/13 11:02:11;;;;;;;21.83;3.53;;;11.40;99.90;;;;;;5046196;28;20215;-35
2023/01/13 11:04:53;;;;;;;18.03;3.27;;;11.40;99.90;;;;;;5046430;28;20325;-33
2023/01/13 11:07:33;;;;;;;16.50;3.60;;;11.30;99.90;;;;;;5046090;28;20682;-34
2023/01/13 11:10:37;;;;;;;19.67;3.57;;;11.40;99.90;;;;;;5045786;28;20277;-34
2023/01/13 11:13:15;;;;;;;19.30;3.60;;;11.40;99.90;;;;;;5044347;28;20640;-35
2023/01/13 11:15:53;;;;;;;16.73;3.07;;;11.30;99.90;;;;;;5045982;28;20196;-35
2023/01/13 11:18:32;;;;;;;21.93;3.87;;;11.40;99.90;;;;;;5046341;28;20253;-34
2023/01/13 11:21:16;;;;;;;22.87;4.60;;;11.40;99.90;;;;;;5046053;28;20564;-33
2023/01/13 11:23:52;;;;;;;16.80;3.60;;;11.40;99.90;;;;;;5046122;28;20208;-34
2023/01/13 11:26:39;;;;;;;20.93;3.97;;;11.40;99.90;;;;;;5045659;28;20195;-34
2023/01/13 11:29:23;;;;;;;12.43;3.00;;;11.40;99.90;;;;;;5044553;28;20307;-33
2023/01/13 11:31:59;;;;;;;20.10;4.00;;;11.40;99.90;;;;;;5046504;28;20216;-32
2023/01/13 11:34:26;;;;;;;20.97;4.17;;;11.40;99.90;;;;;;5045729;28;20255;-32
2023/01/13 11:36:57;;;;;;;26.57;3.77;;;11.40;99.90;;;;;;5045628;28;20568;-32
2023/01/13 11:39:54;;;;;;;20.20;3.77;;;11.30;99.90;;;;;;5044060;28;20616;-33
2023/01/13 11:42:30;;;;;;;17.33;3.40;;;11.30;99.90;;;;;;5044125;28;20723;-31
2023/01/13 11:45:42;;;;;;;17.70;4.23;;;11.30;99.90;;;;;;5046258;28;20226;-32
2023/01/13 11:48:19;;;;;;;19.37;3.73;;;11.30;99.90;;;;;;5045364;28;20738;-32
2023/01/13 11:50:55;;;;;;;21.23;3.83;;;11.20;99.90;;;;;;5049273;28;20287;-32
2023/01/13 11:53:28;;;;;;;18.50;3.80;;;11.20;99.90;;;;;;5049643;28;20236;-32
2023/01/13 11:56:10;;;;;;;16.97;3.97;;;11.30;99.90;;;;;;5047778;28;20653;-32
2023/01/13 11:59:10;;;;;;;16.43;3.60;;;11.20;99.90;;;;;;5047944;28;20254;-32
2023/01/13 12:02:01;;;;;;;22.97;3.37;;;11.20;99.90;;;;;;5049351;28;20200;-32
2023/01/13 12:04:47;;;;;;;17.47;3.67;;;11.30;99.90;;;;;;5049351;28;20235;-33
2023/01/13 12:07:39;;;;;;;18.57;3.73;;;11.30;99.90;;;;;;5031492;28;20209;-32
2023/01/13 12:10:30;;;;;;;16.53;3.37;;;11.30;99.90;;;;;;5049840;28;20196;-32
2023/01/13 12:13:22;;;;;;;16.27;3.43;;;11.30;99.90;;;;;;5049145;28;20220;-32
2023/01/13 12:16:35;;;;;;;19.67;4.03;;;11.30;99.90;;;;;;5049369;28;20659;-32
2023/01/13 12:19:23;;;;;;;23.47;3.60;;;11.30;99.90;;;;;;5047434;28;20203;-33
2023/01/13 12:21:50;;;;;;;17.97;3.73;;;11.30;99.90;;;;;;5049381;28;20204;-32
2023/01/13 12:24:22;;;;;;;15.67;3.60;;;11.30;99.90;;;;;;5049335;28;20200;-32
2023/01/13 12:26:57;;;;;;;19.40;3.50;;;11.40;99.90;;;;;;5049109;28;20224;-32
2023/01/13 12:29:36;;;;;;;16.87;3.67;;;11.40;99.90;;;;;;5048956;28;20214;-32
2023/01/13 12:32:13;;;;;;;16.23;3.53;;;11.40;99.90;;;;;;5048863;28;20211;-32
2023/01/13 12:34:55;;;;;;;16.73;3.57;;;11.50;99.90;;;;;;5047545;28;20247;-32
2023/01/13 12:37:44;;;;;;;17.83;3.80;;;11.50;99.90;;;;;;5048858;28;20577;-32
2023/01/13 12:40:27;;;;;;;22.90;3.60;;;11.50;99.90;;;;;;5048743;28;20204;-32
2023/01/13 12:45:48;;;;;;;17.23;4.00;;;11.50;99.90;;;;;;5048767;28;20201;-32
2023/01/13 12:48:51;;;;;;;14.27;2.87;;;11.50;99.90;;;;;;5048607;28;20224;-32
2023/01/13 12:51:38;;;;;;;15.90;3.10;;;11.50;99.90;;;;;;5048529;28;20204;-32
2023/01/13 12:54:31;;;;;;;15.50;3.00;;;11.50;99.90;;;;;;5046867;28;20231;-30
2023/01/13 12:56:59;;;;;;;16.70;3.37;;;11.50;99.90;;;;;;5047363;28;20710;-30
2023/01/13 12:59:26;;;;;;;16.70;3.33;;;11.50;99.90;;;;;;5048172;28;20241;-30
2023/01/13 13:02:14;;;;;;;13.57;3.47;;;11.60;99.90;;;;;;5047679;28;20340;-30
2023/01/13 13:04:48;;;;;;;16.73;2.90;;;11.60;99.90;;;;;;5048427;28;20211;-30
2023/01/13 13:07:39;;;;;;;16.83;3.27;;;11.60;99.90;;;;;;5048945;28;20207;-30
2023/01/13 13:10:31;;;;;;;15.67;3.00;;;11.60;99.90;;;;;;5047959;28;20251;-30
2023/01/13 13:13:17;;;;;;;12.87;2.90;;;11.60;99.90;;;;;;5048537;28;20223;-30
2023/01/13 13:16:10;;;;;;;17.10;3.20;;;11.60;99.90;;;;;;5047787;28;20219;-31
2023/01/13 13:18:38;;;;;;;15.37;3.27;;;11.60;99.90;;;;;;5048133;28;20269;-30
2023/01/13 13:21:08;;;;;;;15.67;3.30;;;11.60;99.90;;;;;;5047988;28;20220;-30
2023/01/13 13:23:47;;;;;;;18.20;3.60;;;11.50;99.90;;;;;;5046744;28;20212;-31
2023/01/13 13:26:20;;;;;;;13.37;3.20;;;11.50;99.90;;;;;;5046480;28;20486;-30
2023/01/13 13:29:19;;;;;;;14.47;3.30;;;11.50;99.90;;;;;;5047719;28;20677;-30
2023/01/13 13:32:13;;;;;;;17.97;3.20;;;11.50;99.90;;;;;;5047655;28;20216;-30
2023/01/13 13:34:49;;;;;;;17.47;3.53;;;11.50;99.90;;;;;;5047668;28;20281;-30
2023/01/13 13:46:47;;;;;;;13.23;3.50;;;11.40;99.90;;;;;;5047518;28;20204;-30
2023/01/13 13:49:20;;;;;;;17.43;3.70;;;11.40;99.90;;;;;;5047571;28;20220;-30
2023/01/13 13:52:09;;;;;;;18.77;3.13;;;11.40;99.90;;;;;;5047265;28;20232;-30
2023/01/13 13:54:41;;;;;;;13.20;2.67;;;11.50;99.90;;;;;;5047078;28;20503;-31
2023/01/13 13:57:33;;;;;;;15.73;3.57;;;11.50;99.90;;;;;;5047144;28;20200;-30
2023/01/13 14:00:26;;;;;;;17.00;2.97;;;11.50;99.90;;;;;;5046963;28;20254;-30
2023/01/13 14:03:00;;;;;;;20.47;3.60;;;11.50;99.90;;;;;;5045872;28;20188;-30
2023/01/13 14:05:30;;;;;;;13.53;2.90;;;11.50;99.90;;;;;;5046766;28;20212;-30
2023/01/13 14:08:11;;;;;;;19.70;3.90;;;11.50;99.90;;;;;;5047015;28;20311;-31
2023/01/13 14:10:39;;;;;;;15.83;3.40;;;11.50;99.90;;;;;;5046930;28;20204;-31